Map

Track Data

SID SEASON NUMBER BASIN SUBBASIN NAME ISO_TIME NATURE LAT LON WMO_WIND WMO_PRES WMO_AGENCY TRACK_TYPE DIST2LAND LANDFALL IFLAG USA_AGENCY USA_ATCF_ID USA_LAT USA_LON USA_RECORD USA_STATUS USA_WIND USA_PRES USA_SSHS USA_R34_NE USA_R34_SE USA_R34_SW USA_R34_NW USA_R50_NE USA_R50_SE USA_R50_SW USA_R50_NW USA_R64_NE USA_R64_SE USA_R64_SW USA_R64_NW USA_POCI USA_ROCI USA_RMW USA_EYE TOKYO_LAT TOKYO_LON TOKYO_GRADE TOKYO_WIND TOKYO_PRES TOKYO_R50_DIR TOKYO_R50_LONG TOKYO_R50_SHORT TOKYO_R30_DIR TOKYO_R30_LONG TOKYO_R30_SHORT TOKYO_LAND CMA_LAT CMA_LON CMA_CAT CMA_WIND CMA_PRES HKO_LAT HKO_LON HKO_CAT HKO_WIND HKO_PRES NEWDELHI_LAT NEWDELHI_LON NEWDELHI_GRADE NEWDELHI_WIND NEWDELHI_PRES NEWDELHI_CI NEWDELHI_DP NEWDELHI_POCI REUNION_LAT REUNION_LON REUNION_TYPE REUNION_WIND REUNION_PRES REUNION_TNUM REUNION_CI REUNION_RMW REUNION_R34_NE REUNION_R34_SE REUNION_R34_SW REUNION_R34_NW REUNION_R50_NE REUNION_R50_SE REUNION_R50_SW REUNION_R50_NW REUNION_R64_NE REUNION_R64_SE REUNION_R64_SW REUNION_R64_NW BOM_LAT BOM_LON BOM_TYPE BOM_WIND BOM_PRES BOM_TNUM BOM_CI BOM_RMW BOM_R34_NE BOM_R34_SE BOM_R34_SW BOM_R34_NW BOM_R50_NE BOM_R50_SE BOM_R50_SW BOM_R50_NW BOM_R64_NE BOM_R64_SE BOM_R64_SW BOM_R64_NW BOM_ROCI BOM_POCI BOM_EYE BOM_POS_METHOD BOM_PRES_METHOD NADI_LAT NADI_LON NADI_CAT NADI_WIND NADI_PRES WELLINGTON_LAT WELLINGTON_LON WELLINGTON_WIND WELLINGTON_PRES DS824_LAT DS824_LON DS824_STAGE DS824_WIND DS824_PRES TD9636_LAT TD9636_LON TD9636_STAGE TD9636_WIND TD9636_PRES TD9635_LAT TD9635_LON TD9635_WIND TD9635_PRES TD9635_ROCI NEUMANN_LAT NEUMANN_LON NEUMANN_CLASS NEUMANN_WIND NEUMANN_PRES MLC_LAT MLC_LON MLC_CLASS MLC_WIND MLC_PRES USA_GUST BOM_GUST BOM_GUST_PER REUNION_GUST REUNION_GUST_PER USA_SEAHGT USA_SEARAD_NE USA_SEARAD_SE USA_SEARAD_SW USA_SEARAD_NW STORM_SPEED STORM_DIR
1860259N27296 1860 30 NA NA NOT_NAMED 1860-09-14 12:00:00 TS 26.5000 -64.5000 main 912 912 _____________O -1 26.5000 -64.5000 TD 30 6 324
1860259N27296 1860 30 NA NA NOT_NAMED 1860-09-14 15:00:00 TS 26.7601 -64.7098 main 943 942 _____________P -1 26.7601 -64.7098 TD 30 6 324
1860259N27296 1860 30 NA NA NOT_NAMED 1860-09-14 18:00:00 TS 27.0000 -64.9000 main 964 964 _____________O -1 27.0000 -64.9000 TD 30 5 325
1860259N27296 1860 30 NA NA NOT_NAMED 1860-09-14 21:00:00 TS 27.2075 -65.0576 main 981 981 _____________P -1 27.2075 -65.0576 TD 30 5 326
1860259N27296 1860 30 NA NA NOT_NAMED 1860-09-15 00:00:00 TS 27.4000 -65.2000 main 997 997 _____________O -1 27.4000 -65.2000 TD 30 5 327
1860259N27296 1860 30 NA NA NOT_NAMED 1860-09-15 03:00:00 TS 27.6000 -65.3501 main 1009 1009 _____________P -1 27.6000 -65.3501 TD 30 5 326
1860259N27296 1860 30 NA NA NOT_NAMED 1860-09-15 06:00:00 TS 27.8000 -65.5000 main 1024 1024 _____________O -1 27.8000 -65.5000 TD 30 5 325
1860259N27296 1860 30 NA NA NOT_NAMED 1860-09-15 09:00:00 TS 27.9925 -65.6575 main 1035 1035 _____________P -1 27.9925 -65.6575 TD 32 5 326
1860259N27296 1860 30 NA NA NOT_NAMED 1860-09-15 12:00:00 TS 28.2000 -65.8000 main 1051 1051 _____________O -1 28.2000 -65.8000 TS 35 5 334
1860259N27296 1860 30 NA NA NOT_NAMED 1860-09-15 15:00:00 TS 28.4500 -65.9075 main 1067 1067 _____________P -1 28.4500 -65.9075 TS 37 5 340
1860259N27296 1860 30 NA NA NOT_NAMED 1860-09-15 18:00:00 TS 28.7000 -66.0000 main 1094 1094 _____________O -1 28.7000 -66.0000 TS 40 5 340
1860259N27296 1860 30 NA NA NOT_NAMED 1860-09-15 21:00:00 TS 28.9075 -66.1001 main 1105 1105 _____________P -1 28.9075 -66.1001 TS 45 4 336
1860259N27296 1860 30 NA NA NOT_NAMED 1860-09-16 00:00:00 TS 29.1000 -66.2000 main 1116 1116 _____________O -1 29.1000 -66.2000 TS 50 4 335
1860259N27296 1860 30 NA NA NOT_NAMED 1860-09-16 03:00:00 TS 29.2925 -66.3001 main 1124 1102 _____________P -1 29.2925 -66.3001 TS 55 4 337
1860259N27296 1860 30 NA NA NOT_NAMED 1860-09-16 06:00:00 TS 29.5000 -66.4000 main 1102 1080 _____________O -1 29.5000 -66.4000 TS 60 5 341
1860259N27296 1860 30 NA NA NOT_NAMED 1860-09-16 09:00:00 TS 29.7574 -66.4851 main 1072 1050 _____________P -1 29.7574 -66.4851 TS 60 5 341
1860259N27296 1860 30 NA NA NOT_NAMED 1860-09-16 12:00:00 TS 30.0000 -66.6000 main 1050 1021 _____________O -1 30.0000 -66.6000 TS 60 5 328
1860259N27296 1860 30 NA NA NOT_NAMED 1860-09-16 15:00:00 TS 30.1725 -66.7850 main 1021 999 _____________P -1 30.1725 -66.7850 TS 62 5 311
1860259N27296 1860 30 NA NA NOT_NAMED 1860-09-16 18:00:00 TS 30.3000 -67.0000 main 999 978 _____________O -1 30.3000 -67.0000 HU 65 4 302
1860259N27296 1860 30 NA NA NOT_NAMED 1860-09-16 21:00:00 TS 30.4000 -67.2001 main 978 956 _____________P -1 30.4000 -67.2001 HU 65 4 300
1860259N27296 1860 30 NA NA NOT_NAMED 1860-09-17 00:00:00 TS 30.5000 -67.4000 main 956 934 _____________O -1 30.5000 -67.4000 HU 65 4 306
1860259N27296 1860 30 NA NA NOT_NAMED 1860-09-17 03:00:00 TS 30.6500 -67.6000 main 934 905 _____________P -1 30.6500 -67.6000 HU 65 5 311
1860259N27296 1860 30 NA NA NOT_NAMED 1860-09-17 06:00:00 TS 30.8000 -67.8000 main 905 883 _____________O -1 30.8000 -67.8000 HU 65 4 306
1860259N27296 1860 30 NA NA NOT_NAMED 1860-09-17 09:00:00 TS 30.9000 -68.0076 main 883 862 _____________P -1 30.9000 -68.0076 HU 65 4 300
1860259N27296 1860 30 NA NA NOT_NAMED 1860-09-17 12:00:00 TS 31.0000 -68.2000 main 862 847 _____________O -1 31.0000 -68.2000 HU 65 4 309
1860259N27296 1860 30 NA NA NOT_NAMED 1860-09-17 15:00:00 TS 31.1425 -68.3575 main 840 818 _____________P -1 31.1425 -68.3575 HU 65 4 320
1860259N27296 1860 30 NA NA NOT_NAMED 1860-09-17 18:00:00 TS 31.3000 -68.5000 main 818 804 _____________O -1 31.3000 -68.5000 HU 65 4 321
1860259N27296 1860 30 NA NA NOT_NAMED 1860-09-17 21:00:00 TS 31.4500 -68.6500 main 796 775 _____________P -1 31.4500 -68.6500 HU 65 4 320
1860259N27296 1860 30 NA NA NOT_NAMED 1860-09-18 00:00:00 TS 31.6000 -68.8000 main 775 761 _____________O -1 31.6000 -68.8000 HU 65 4 320
1860259N27296 1860 30 NA NA NOT_NAMED 1860-09-18 03:00:00 TS 31.7500 -68.9501 main 753 732 _____________P -1 31.7500 -68.9501 HU 65 4 320
1860259N27296 1860 30 NA NA NOT_NAMED 1860-09-18 06:00:00 TS 31.9000 -69.1000 main 732 710 _____________O -1 31.9000 -69.1000 HU 65 4 316
1860259N27296 1860 30 NA NA NOT_NAMED 1860-09-18 09:00:00 TS 32.0425 -69.2874 main 710 689 _____________P -1 32.0425 -69.2874 HU 65 4 320
1860259N27296 1860 30 NA NA NOT_NAMED 1860-09-18 12:00:00 TS 32.2000 -69.4000 main 689 676 _____________O -1 32.2000 -69.4000 HU 65 4 354
1860259N27296 1860 30 NA NA NOT_NAMED 1860-09-18 15:00:00 TS 32.3925 -69.3377 main 684 677 _____________P -1 32.3925 -69.3377 HU 65 4 23
1860259N27296 1860 30 NA NA NOT_NAMED 1860-09-18 18:00:00 TS 32.6000 -69.2000 main 679 673 _____________O -1 32.6000 -69.2000 HU 65 5 26
1860259N27296 1860 30 NA NA NOT_NAMED 1860-09-18 21:00:00 TS 32.8000 -69.1000 main 675 669 _____________P -1 32.8000 -69.1000 HU 65 4 23
1860259N27296 1860 30 NA NA NOT_NAMED 1860-09-19 00:00:00 TS 33.0000 -69.0000 main 671 666 _____________O -1 33.0000 -69.0000 HU 65 4 22
1860259N27296 1860 30 NA NA NOT_NAMED 1860-09-19 03:00:00 TS 33.2000 -68.9074 main 669 664 _____________P -1 33.2000 -68.9074 HU 65 4 23
1860259N27296 1860 30 NA NA NOT_NAMED 1860-09-19 06:00:00 TS 33.4000 -68.8000 main 667 662 _____________O -1 33.4000 -68.8000 HU 65 5 28
1860259N27296 1860 30 NA NA NOT_NAMED 1860-09-19 09:00:00 TS 33.6075 -68.6501 main 666 666 _____________P -1 33.6075 -68.6501 HU 65 5 32
1860259N27296 1860 30 NA NA NOT_NAMED 1860-09-19 12:00:00 TS 33.8000 -68.5000 main 675 671 _____________O -1 33.8000 -68.5000 HU 65 4 32
1860259N27296 1860 30 NA NA NOT_NAMED 1860-09-19 15:00:00 TS 33.9575 -68.3849 main 676 676 _____________P -1 33.9575 -68.3849 HU 65 3 29
1860259N27296 1860 30 NA NA NOT_NAMED 1860-09-19 18:00:00 TS 34.1000 -68.3000 main 681 678 _____________O -1 34.1000 -68.3000 HU 65 3 22
1860259N27296 1860 30 NA NA NOT_NAMED 1860-09-19 21:00:00 TS 34.2500 -68.2424 main 686 680 _____________P -1 34.2500 -68.2424 HU 65 3 14
1860259N27296 1860 30 NA NA NOT_NAMED 1860-09-20 00:00:00 TS 34.4000 -68.2000 main 680 677 _____________O -1 34.4000 -68.2000 HU 65 3 14
1860259N27296 1860 30 NA NA NOT_NAMED 1860-09-20 03:00:00 TS 34.5500 -68.1500 main 683 681 _____________P -1 34.5500 -68.1500 HU 65 3 14
1860259N27296 1860 30 NA NA NOT_NAMED 1860-09-20 06:00:00 TS 34.7000 -68.1000 main 681 679 _____________O -1 34.7000 -68.1000 HU 65 3 11
1860259N27296 1860 30 NA NA NOT_NAMED 1860-09-20 09:00:00 TS 34.8349 -68.0797 main 679 676 _____________P -1 34.8349 -68.0797 HU 65 3 14
1860259N27296 1860 30 NA NA NOT_NAMED 1860-09-20 12:00:00 TS 35.0000 -68.0000 main 683 682 _____________O -1 35.0000 -68.0000 HU 65 5 31
1860259N27296 1860 30 NA NA NOT_NAMED 1860-09-20 15:00:00 TS 35.2351 -67.7802 main 698 697 _____________P -1 35.2351 -67.7802 HU 65 6 39
1860259N27296 1860 30 NA NA NOT_NAMED 1860-09-20 18:00:00 TS 35.5000 -67.5000 main 721 707 _____________O -1 35.5000 -67.5000 HU 65 7 40
1860259N27296 1860 30 NA NA NOT_NAMED 1860-09-20 21:00:00 TS 35.7499 -67.2498 main 710 685 _____________P -1 35.7499 -67.2498 HU 65 6 39
1860259N27296 1860 30 NA NA NOT_NAMED 1860-09-21 00:00:00 TS 36.0000 -67.0000 main 685 671 _____________O -1 36.0000 -67.0000 HU 65 6 39
1860259N27296 1860 30 NA NA NOT_NAMED 1860-09-21 03:00:00 TS 36.2499 -66.7498 main 675 652 _____________P -1 36.2499 -66.7498 HU 65 6 39
1860259N27296 1860 30 NA NA NOT_NAMED 1860-09-21 06:00:00 TS 36.5000 -66.5000 main 652 636 _____________O -1 36.5000 -66.5000 HU 65 6 37
1860259N27296 1860 30 NA NA NOT_NAMED 1860-09-21 09:00:00 TS 36.7270 -66.3014 main 640 625 _____________P -1 36.7270 -66.3014 HU 65 6 39
1860259N27296 1860 30 NA NA NOT_NAMED 1860-09-21 12:00:00 TS 37.0000 -66.0000 main 625 616 _____________O -1 37.0000 -66.0000 HU 65 9 46
1860259N27296 1860 30 NA NA NOT_NAMED 1860-09-21 15:00:00 TS 37.3712 -65.4723 main 613 613 _____________P -1 37.3712 -65.4723 HU 57 12 50
1860259N27296 1860 30 NA NA NOT_NAMED 1860-09-21 18:00:00 TS 37.8000 -64.8000 main 620 _____________O -1 37.8000 -64.8000 TS 50 14 51

About IBTrACS Database

This database is a web-friendly format of International Best Track Archive for Climate Stewardship (IBTrACS), a global best track data archive curated by NOAA dating back to 1842.

Updated: 2021-10-08